Data for 09/06/2006

Time Sea-Level Adjusted Pressure Absolute Pressure Temperature Relative Humidity Dew Point   
(mb) (inHg) (mb) (inHg) (C) (F) (%) (C) (F)
00:05 1024 30.24 853 25.19 19.9 67.8 19 -4 24.8
00:10 1024 30.24 853 25.19 20.2 68.4 21 -2.6 27.4
00:15 1024 30.24 853 25.19 20.4 68.7 18 -4.4 24.1
00:20 1024 30.24 853 25.19 20.2 68.4 20 -3.2 26.2
00:25 1024 30.24 853 25.19 19 66.2 22 -2.8 26.9
00:30 1024 30.24 853 25.19 18.2 64.7 23 -3.2 26.2
00:35 1024 30.24 853 25.19 18 64.3 23 -3.4 25.8
00:40 1024 30.24 854 25.22 18.1 64.6 22 -3.7 25.3
00:45 1024 30.24 854 25.22 18.4 65 22 -3.6 25.5
00:50 1024 30.24 854 25.22 18 64.4 23 -3.3 26.1
00:55 1024 30.24 854 25.22 17.8 64 23 -3.3 26
01:00 1024 30.24 853 25.19 17.9 64.1 26 -1.9 28.5
01:05 1024 30.24 853 25.19 17.9 64.2 24 -3 26.5
01:10 1024 30.24 853 25.19 17.7 63.9 25 -2.7 27.2
01:15 1024 30.24 853 25.19 17.5 63.4 26 -2.1 28.2
01:20 1024 30.24 853 25.19 17.1 62.7 29 -1.2 29.9
01:25 1024 30.24 853 25.19 16.9 62.4 28 -1.8 28.8
01:30 1024 30.24 853 25.19 17.1 62.8 28 -1.4 29.5
01:35 1024 30.24 853 25.19 17.6 63.7 25 -2.8 27
01:40 1024 30.24 853 25.19 17.5 63.5 31 0.1 32.2
01:45 1024 30.24 853 25.19 17.5 63.5 24 -3.1 26.4
01:50 1024 30.24 854 25.22 17.5 63.6 25 -2.5 27.4
01:55 1024 30.24 854 25.22 17.2 62.9 24 -3.2 26.3
02:00 1024 30.24 854 25.22 17.5 63.5 23 -3.6 25.4
02:05 1024 30.24 854 25.22 17.7 63.9 26 -2.1 28.3
02:10 1024 30.24 854 25.22 17.3 63.1 27 -1.8 28.7
02:15 1024 30.24 854 25.22 17 62.6 32 0.2 32.4
02:20 1024 30.24 854 25.22 16.7 62 27 -2.4 27.7
02:25 1024 30.24 854 25.22 16.5 61.6 28 -2.2 28
02:30 1024 30.24 854 25.22 16.5 61.8 27 -2.6 27.4
02:35 1024 30.24 853 25.19 16.5 61.7 26 -2.8 27
02:40 1024 30.24 853 25.19 16.6 61.9 26 -2.9 26.8
02:45 1024 30.24 853 25.19 16.4 61.6 33 0.4 32.8
02:50 1024 30.24 853 25.19 16.7 62 25 -3.4 25.8
02:55 1024 30.24 853 25.19 17.1 62.8 32 0.5 33
03:00 1024 30.24 853 25.19 16.5 61.8 28 -1.9 28.5
03:05 1024 30.24 853 25.19 15.8 60.4 37 1 33.9
03:10 1024 30.24 853 25.19 15.3 59.6 31 -1.5 29.4
03:15 1024 30.24 853 25.19 15.2 59.4 31 -1.7 29
03:20 1024 30.24 853 25.19 15.9 60.5 28 -2.6 27.3
03:25 1024 30.24 853 25.19 15.8 60.4 30 -1.7 28.9
03:30 1024 30.24 853 25.19 15.5 59.9 30 -2 28.4
03:35 1024 30.24 853 25.19 15.5 59.8 33 -0.5 31
03:40 1024 30.24 853 25.19 15.9 60.6 28 -2.6 27.2
03:45 1024 30.24 854 25.22 15.7 60.2 29 -2.1 28.2
03:50 1024 30.24 854 25.22 15.4 59.7 29 -2.4 27.7
03:55 1024 30.24 853 25.19 15.1 59.2 30 -2.2 28.1
04:00 1024 30.24 853 25.19 15 58.9 30 -2.2 28
04:05 1024 30.24 853 25.19 14.7 58.5 31 -2.2 28.1
04:10 1024 30.24 853 25.19 14.8 58.6 30 -2.6 27.2
04:15 1024 30.24 853 25.19 14.9 58.9 30 -2.5 27.4
04:20 1024 30.24 853 25.19 15.3 59.6 28 -2.9 26.7
04:25 1024 30.24 853 25.19 15.4 59.8 29 -2.6 27.3
04:30 1024 30.24 853 25.19 15.3 59.5 29 -2.6 27.3
04:35 1024 30.24 853 25.19 15 59 29 -2.7 27.2
04:40 1024 30.24 853 25.19 14.9 58.9 29 -3 26.6
04:45 1024 30.24 853 25.19 15.1 59.2 28 -3.3 26
04:50 1024 30.24 853 25.19 15 59 29 -2.9 26.8
04:55 1024 30.24 853 25.19 14.7 58.5 30 -2.8 27
05:00 1024 30.24 853 25.19 14.4 58 32 -2.1 28.2
05:05 1024 30.24 853 25.19 13.9 57.1 31 -2.8 26.9
05:10 1024 30.24 853 25.19 14.2 57.5 30 -3.1 26.5
05:15 1024 30.24 853 25.19 14.5 58 29 -3.2 26.3
05:20 1024 30.24 853 25.19 14.7 58.4 29 -3 26.7
05:25 1024 30.24 853 25.19 14.7 58.5 29 -2.9 26.7
05:30 1024 30.24 853 25.19 14.7 58.5 31 -2.4 27.8
05:35 1024 30.24 853 25.19 14.5 58 31 -2.5 27.5
05:40 1024 30.24 853 25.19 14.4 57.8 31 -2.5 27.4
05:45 1024 30.24 853 25.19 14.6 58.3 30 -2.7 27.1
05:50 1024 30.24 853 25.19 14.5 58 31 -2.2 28
05:55 1024 30.24 853 25.19 14.1 57.4 32 -2.2 28
06:00 1024 30.24 853 25.19 14.2 57.5 30 -3.1 26.4
06:05 1024 30.24 853 25.19 14.4 58 31 -2.6 27.4
06:10 1024 30.24 853 25.19 14.5 58.2 29 -3.3 26.1
06:15 1024 30.24 853 25.19 15.1 59.2 32 -1.6 29.2
06:20 1024 30.24 853 25.19 15.2 59.3 30 -2.4 27.7
06:25 1024 30.24 853 25.19 14.9 58.8 31 -2 28.3
06:30 1024 30.24 853 25.19 14.8 58.6 30 -2.5 27.6
06:35 1024 30.24 853 25.19 14.9 58.9 29 -2.7 27.2
06:40 1024 30.24 854 25.22 14.9 58.8 34 -0.6 30.9
06:45 1024 30.24 854 25.22 14.6 58.4 30 -2.4 27.6
06:50 1024 30.24 854 25.22 14.6 58.2 30 -2.6 27.3
06:55 1024 30.24 854 25.22 14.9 58.7 30 -2.4 27.6
07:00 1025 30.27 854 25.22 15.1 59.1 29 -2.8 26.9
07:05 1025 30.27 854 25.22 15.2 59.3 32 -1.3 29.7
07:10 1025 30.27 854 25.22 15.2 59.4 29 -2.6 27.4
07:15 1025 30.27 854 25.22 15.3 59.5 31 -1.8 28.7
07:20 1025 30.27 854 25.22 15.2 59.4 38 1.2 34.2
07:25 1025 30.27 854 25.22 14.8 58.7 35 -0.6 31
07:30 1025 30.27 854 25.22 14.3 57.7 43 2.1 35.8
07:35 1025 30.27 854 25.22 14.2 57.6 35 -0.9 30.4
07:40 1025 30.27 854 25.22 14.2 57.6 35 -1 30.3
07:45 1025 30.27 854 25.22 14 57.2 43 1.7 35.1
07:50 1025 30.27 854 25.22 13.8 56.9 39 0.2 32.4
07:55 1025 30.27 854 25.22 13.9 57 38 -0 32
08:00 1025 30.27 854 25.22 13.9 57.1 40 0.5 33
08:05 1025 30.27 854 25.22 13.7 56.7 42 1.2 34.2
08:10 1025 30.27 854 25.22 13.7 56.6 43 1.4 34.5
08:15 1025 30.27 854 25.22 13.6 56.5 38 -0.2 31.6
08:20 1025 30.27 854 25.22 13.6 56.6 37 -0.7 30.8
08:25 1025 30.27 854 25.22 13.8 56.9 35 -1.2 29.9
08:30 1025 30.27 854 25.22 14.1 57.3 35 -1.2 29.8
08:35 1025 30.27 854 25.22 14.2 57.5 36 -0.4 31.3
08:40 1025 30.27 854 25.22 14.4 57.8 34 -1.3 29.7
08:45 1025 30.27 854 25.22 14.6 58.2 34 -0.8 30.5
08:50 1025 30.27 854 25.22 14.6 58.3 41 1.5 34.8
08:55 1025 30.27 854 25.22 14.7 58.5 35 -0.3 31.5
09:00 1025 30.27 854 25.22 14.8 58.7 35 -0.4 31.2
09:05 1025 30.27 854 25.22 15 58.9 40 1.7 35
09:10 1025 30.27 854 25.22 15.4 59.7 33 -0.6 31
09:15 1025 30.27 854 25.22 15.6 60.2 33 -0.3 31.5
09:20 1025 30.27 854 25.22 16 60.8 32 -0.6 30.9
09:25 1025 30.27 854 25.22 16.5 61.7 29 -1.5 29.3
09:30 1025 30.27 854 25.22 17 62.6 28 -1.5 29.3
09:35 1025 30.27 854 25.22 17.4 63.3 27 -1.8 28.7
09:40 1025 30.27 854 25.22 17.8 64.1 28 -0.8 30.5
09:45 1025 30.27 854 25.22 18.6 65.5 28 -0.2 31.7
09:50 1025 30.27 854 25.22 18.8 65.8 27 -0.5 31.1
09:55 1025 30.27 854 25.22 18.8 65.8 28 -0.2 31.7
10:00 1025 30.27 854 25.22 18.9 66 27 -0.4 31.3
10:05 1025 30.27 854 25.22 19.1 66.4 28 0.2 32.4
10:10 1025 30.27 854 25.22 19.3 66.8 28 0.7 33.3
10:15 1024 30.24 854 25.22 19.7 67.4 28 0.6 33.1
10:20 1025 30.27 854 25.22 19.9 67.8 26 0.1 32.1
10:25 1025 30.27 854 25.22 20 67.9 27 0.4 32.8
10:30 1025 30.27 854 25.22 20.2 68.3 24 -0.7 30.7
10:35 1025 30.27 854 25.22 20.6 69 24 -0.6 30.9
10:40 1025 30.27 854 25.22 20.8 69.5 24 -0.1 31.8
10:45 1025 30.27 854 25.22 21.1 69.9 23 -0.6 30.9
10:50 1025 30.27 854 25.22 21.3 70.3 25 0.5 33
10:55 1025 30.27 854 25.22 21 69.9 23 -0.5 31.1
11:00 1025 30.27 854 25.22 21 69.9 27 1.3 34.3
11:05 1025 30.27 854 25.22 20.2 68.4 30 2.3 36.1
11:10 1025 30.27 854 25.22 19.3 66.7 31 1.8 35.2
11:15 1025 30.27 854 25.22 19 66.2 31 1.7 35.1
11:20 1025 30.27 854 25.22 19.3 66.7 30 1.3 34.3
11:25 1025 30.27 854 25.22 19.6 67.2 29 1.4 34.4
11:30 1025 30.27 854 25.22 20.4 68.7 26 0.6 33.1
11:35 1025 30.27 854 25.22 20.7 69.2 26 0.7 33.3
11:40 1025 30.27 854 25.22 20.7 69.2 28 1.6 35
11:45 1025 30.27 854 25.22 21 69.8 26 1 33.9
11:50 1025 30.27 854 25.22 21.1 69.9 26 1.1 34
11:55 1025 30.27 854 25.22 21.2 70.1 25 0.7 33.3
12:00 1025 30.27 854 25.22 21.2 70.2 26 0.9 33.7
12:05 1025 30.27 854 25.22 21.4 70.5 24 0 32
12:10 1025 30.27 854 25.22 21.7 71.1 27 2.2 36
12:15 1024 30.24 854 25.22 21.2 70.2 26 1.1 34
12:20 1024 30.24 854 25.22 21.4 70.4 25 0.9 33.7
12:25 1024 30.24 853 25.19 21.5 70.6 28 2.2 35.9
12:30 1024 30.24 853 25.19 21.6 70.9 29 3.1 37.5
12:35 1024 30.24 853 25.19 21.9 71.4 29 3.2 37.8
12:40 1023 30.21 853 25.19 21.8 71.3 29 3.1 37.6
12:45 1024 30.24 853 25.19 22.2 71.9 28 2.9 37.1
12:50 1024 30.24 853 25.19 22.3 72.1 28 3.1 37.6
12:55 1024 30.24 853 25.19 22.7 72.8 23 0.4 32.7
13:00 1024 30.24 853 25.19 22.5 72.5 25 1.4 34.6
13:05 1023 30.21 853 25.19 22.9 73.2 25 1.8 35.2
13:10 1023 30.21 853 25.19 23.1 73.6 23 0.9 33.6
13:15 1023 30.21 852 25.16 23.4 74 23 1.4 34.5
13:20 1023 30.21 852 25.16 23.9 75 22 1 33.9
13:25 1023 30.21 852 25.16 24.3 75.8 21 0.8 33.5
13:30 1023 30.21 852 25.16 25 77 21 1.5 34.7
13:35 1023 30.21 852 25.16 25 77 18 -1.1 30.1
13:40 1023 30.21 852 25.16 25.4 77.7 18 -0.4 31.3
13:45 1023 30.21 852 25.16 25.5 77.9 19 0.4 32.7
13:50 1023 30.21 852 25.16 26 78.7 18 0.1 32.2
13:55 1023 30.21 852 25.16 26.5 79.6 17 -0.1 31.8
14:00 1023 30.21 852 25.16 26.6 79.8 16 -1.1 30
14:05 1023 30.21 852 25.16 26.8 80.3 16 -1 30.2
14:10 1023 30.21 852 25.16 26.9 80.4 16 -1.1 30
14:15 1023 30.21 852 25.16 27.5 81.5 15 -1.3 29.7
14:20 1023 30.21 852 25.16 27 80.5 15 -1.8 28.8
14:25 1023 30.21 852 25.16 27.1 80.9 15 -1.2 29.8
14:30 1023 30.21 852 25.16 28.1 82.7 15 -0.7 30.7
14:35 1022 30.18 852 25.16 28.2 82.7 16 -0.1 31.9
14:40 1022 30.18 852 25.16 28.3 82.9 15 -0.7 30.8
14:45 1022 30.18 852 25.16 28.2 82.8 15 -0.6 30.9
14:50 1022 30.18 851 25.13 28 82.4 15 -0.7 30.7
14:55 1022 30.18 851 25.13 28.1 82.6 15 -0.9 30.4
15:00 1022 30.18 851 25.13 28.2 82.7 14 -1.5 29.3
15:05 1022 30.18 851 25.13 28.2 82.7 15 -0.5 31.1
15:10 1022 30.18 851 25.13 28.3 82.9 14 -1.5 29.3
15:15 1022 30.18 851 25.13 28 82.5 14 -1.6 29.2
15:20 1022 30.18 851 25.13 28 82.3 14 -1.3 29.6
15:25 1022 30.18 851 25.13 28.3 82.9 15 -0.5 31.1
15:30 1022 30.18 851 25.13 28.8 83.8 14 -0.6 30.9
15:35 1022 30.18 851 25.13 29 84.1 14 -0.7 30.8
15:40 1022 30.18 851 25.13 28.9 83.9 14 -0.9 30.3
15:45 1022 30.18 851 25.13 28.9 83.9 14 -0.8 30.5
15:50 1021 30.15 851 25.13 28.5 83.2 14 -1.2 29.8
15:55 1021 30.15 851 25.13 28.7 83.6 14 -1.1 29.9
16:00 1021 30.15 851 25.13 28.1 82.6 14 -1.3 29.7
16:05 1021 30.15 850 25.1 28.5 83.2 14 -1.3 29.6
16:10 1021 30.15 850 25.1 28.7 83.6 15 -0.4 31.2
16:15 1021 30.15 850 25.1 28.9 83.9 14 -1 30.2
16:20 1021 30.15 850 25.1 29 84.3 14 -1.1 30.1
16:25 1021 30.15 850 25.1 29.1 84.3 14 -0.3 31.4
16:30 1021 30.15 850 25.1 28.8 83.9 15 -0.5 31.1
16:35 1021 30.15 850 25.1 28.6 83.5 14 -1 30.1
16:40 1021 30.15 850 25.1 28.5 83.3 15 -0.5 31.2
16:45 1021 30.15 850 25.1 28.3 82.9 14 -1.2 29.8
16:50 1021 30.15 850 25.1 28.1 82.5 15 -0.7 30.8
16:55 1021 30.15 850 25.1 28.5 83.4 14 -0.9 30.4
17:00 1021 30.15 850 25.1 28.5 83.4 14 -0.9 30.4
17:05 1021 30.15 850 25.1 28.7 83.7 14 -0.8 30.6
17:10 1021 30.15 850 25.1 28.3 83 15 -0.6 30.9
17:15 1021 30.15 850 25.1 28 82.4 15 -1.1 30.1
17:20 1021 30.15 850 25.1 28.1 82.6 15 -0.3 31.5
17:25 1021 30.15 850 25.1 28.3 83 14 -1 30.2
17:30 1021 30.15 850 25.1 28.3 82.9 15 -0.6 30.9
17:35 1021 30.15 850 25.1 28.2 82.8 15 -0.6 30.9
17:40 1021 30.15 850 25.1 28.1 82.6 14 -1.3 29.7
17:45 1021 30.15 850 25.1 28.2 82.7 15 -0.2 31.6
17:50 1021 30.15 850 25.1 28.2 82.8 15 -0.2 31.6
17:55 1021 30.15 850 25.1 28.2 82.8 15 -0.5 31.1
18:00 1021 30.15 850 25.1 27.9 82.3 15 -0.6 30.9
18:05 1021 30.15 850 25.1 28 82.3 15 -0.5 31
18:10 1021 30.15 850 25.1 27 80.7 17 0.1 32.2
18:15 1021 30.15 851 25.13 25.9 78.5 19 0.6 33.1
18:20 1021 30.15 851 25.13 25.5 77.8 19 0.2 32.3
18:25 1021 30.15 851 25.13 25.2 77.4 20 0.8 33.4
18:30 1022 30.18 851 25.13 24.6 76.3 21 1.3 34.3
18:35 1022 30.18 851 25.13 24.2 75.5 24 2.3 36.1
18:40 1021 30.15 851 25.13 23.7 74.6 25 2.6 36.6
18:45 1021 30.15 851 25.13 23.3 74 25 2.3 36.1
18:50 1021 30.15 851 25.13 23.1 73.5 26 2.8 37.1
18:55 1021 30.15 851 25.13 22.6 72.7 27 3 37.5
19:00 1021 30.15 851 25.13 22.3 72.2 28 3.2 37.7
19:05 1021 30.15 851 25.13 22.1 71.8 29 3.6 38.5
19:10 1021 30.15 851 25.13 21.8 71.2 31 4.3 39.7
19:15 1021 30.15 851 25.13 21.6 70.9 31 4 39.2
19:20 1021 30.15 851 25.13 21.5 70.7 30 3.5 38.2
19:25 1021 30.15 851 25.13 21.5 70.8 29 3.1 37.6
19:30 1021 30.15 851 25.13 21.6 70.8 30 3.4 38.1
19:35 1021 30.15 851 25.13 21.4 70.5 30 3.3 38
19:40 1021 30.15 851 25.13 21.1 70.1 31 3.7 38.6
19:45 1021 30.15 851 25.13 21.1 70 30 2.8 37.1
19:50 1022 30.18 851 25.13 21.3 70.4 30 3.1 37.6
19:55 1021 30.15 851 25.13 21.4 70.5 30 3.1 37.6
20:00 1021 30.15 851 25.13 21.2 70.1 31 3.5 38.2
20:05 1021 30.15 850 25.1 21.1 69.9 30 2.8 37.1
20:10 1021 30.15 850 25.1 21.3 70.4 29 2.6 36.7
20:15 1021 30.15 850 25.1 21.3 70.3 28 2.4 36.3
20:20 1021 30.15 850 25.1 21.2 70.1 28 2.3 36.2
20:25 1021 30.15 850 25.1 21 69.7 29 2.3 36.1
20:30 1021 30.15 850 25.1 20.9 69.6 29 2.2 36
20:35 1021 30.15 850 25.1 20.8 69.4 34 4.4 39.9
20:40 1021 30.15 850 25.1 20.7 69.3 30 2.5 36.5
20:45 1021 30.15 850 25.1 20.5 69 29 2.1 35.9
20:50 1021 30.15 850 25.1 20.5 68.8 34 4.2 39.5
20:55 1021 30.15 850 25.1 20.5 69 28 1.4 34.4
21:00 1021 30.15 850 25.1 20.3 68.5 29 1.9 35.4
21:05 1021 30.15 850 25.1 19.8 67.6 30 1.8 35.2
21:10 1021 30.15 850 25.1 19.6 67.3 30 1.5 34.7
21:15 1021 30.15 850 25.1 19.9 67.8 29 1.5 34.7
21:20 1021 30.15 850 25.1 19.6 67.2 32 2.4 36.3
21:25 1021 30.15 850 25.1 18.9 66.1 33 2.5 36.4
21:30 1021 30.15 850 25.1 18.6 65.5 34 2.4 36.4
21:35 1021 30.15 850 25.1 18.5 65.3 42 5.3 41.6
21:40 1021 30.15 850 25.1 18.6 65.4 35 3.1 37.6
21:45 1021 30.15 850 25.1 18.6 65.5 33 2 35.7
21:50 1021 30.15 850 25.1 18.8 65.9 39 4.6 40.2
21:55 1021 30.15 850 25.1 18.6 65.4 33 2 35.7
22:00 1021 30.15 850 25.1 18.8 65.8 32 2 35.7
22:05 1021 30.15 850 25.1 18.6 65.6 37 3.9 39
22:10 1021 30.15 850 25.1 18.1 64.6 34 2 35.6
22:15 1021 30.15 850 25.1 17.9 64.2 34 2 35.5
22:20 1021 30.15 850 25.1 17.7 63.8 35 2.1 35.7
22:25 1021 30.15 850 25.1 17.5 63.4 35 1.9 35.4
22:30 1021 30.15 850 25.1 17.6 63.7 34 1.8 35.2
22:35 1021 30.15 850 25.1 17.7 63.9 34 1.6 35
22:40 1021 30.15 850 25.1 17.7 63.9 33 1.5 34.6
22:45 1021 30.15 850 25.1 17.7 63.8 34 1.5 34.8
22:50 1021 30.15 850 25.1 17.6 63.6 34 1.7 35
22:55 1021 30.15 850 25.1 17.3 63.2 35 1.9 35.3
23:00 1021 30.15 850 25.1 17.1 62.8 35 1.6 34.9
23:05 1021 30.15 850 25.1 17.1 62.7 39 3.1 37.5
23:10 1021 30.15 850 25.1 16.9 62.4 37 2.3 36.2
23:15 1021 30.15 850 25.1 16.6 61.9 39 2.6 36.8
23:20 1021 30.15 850 25.1 16.4 61.4 37 1.8 35.3
23:25 1021 30.15 850 25.1 16.6 61.8 36 1.4 34.6
23:30 1021 30.15 850 25.1 16.7 62 37 2 35.5
23:35 1021 30.15 850 25.1 16.6 61.9 37 2 35.7
23:40 1021 30.15 850 25.1 16.8 62.2 36 1.8 35.3
23:45 1021 30.15 850 25.1 16.8 62.3 42 4 39.1
23:50 1021 30.15 850 25.1 17 62.7 34 1.1 34
23:55 1021 30.15 850 25.1 17.1 62.8 37 2.5 36.6
24:00 1021 30.15 850 25.1 16.8 62.2 35 1.3 34.4